createdAt,value
2022-07-26T00:00:14.634Z,28.16
2022-07-26T00:02:48.368Z,28.15
2022-07-26T00:05:16.820Z,28.16
2022-07-26T00:07:44.751Z,28.17
2022-07-26T00:10:11.851Z,28.21
2022-07-26T00:12:39.131Z,28.19
2022-07-26T00:15:09.029Z,28.20
2022-07-26T00:17:36.130Z,28.24
2022-07-26T00:20:04.310Z,28.28
2022-07-26T00:22:39.681Z,28.30
2022-07-26T00:25:09.262Z,28.28
2022-07-26T00:27:37.497Z,28.24
2022-07-26T00:30:09.729Z,28.30
2022-07-26T00:32:37.412Z,28.35
2022-07-26T00:35:05.670Z,28.38
2022-07-26T00:37:33.008Z,28.40
2022-07-26T00:40:00.157Z,28.33
2022-07-26T00:42:27.380Z,28.24
2022-07-26T00:44:54.410Z,28.19
2022-07-26T00:47:21.400Z,28.28
2022-07-26T00:49:48.530Z,28.22
2022-07-26T00:52:15.540Z,28.27
2022-07-26T00:54:46.850Z,28.24
2022-07-26T00:57:15.228Z,28.24
2022-07-26T00:59:42.990Z,28.22
2022-07-26T01:02:11.345Z,28.25
2022-07-26T01:04:40.279Z,28.16
2022-07-26T01:07:14.950Z,28.14
2022-07-26T01:09:43.162Z,28.05
2022-07-26T01:12:11.009Z,28.15
2022-07-26T01:14:38.370Z,28.05
2022-07-26T01:17:05.687Z,27.93
2022-07-26T01:19:32.873Z,28.17
2022-07-26T01:21:59.894Z,28.02
2022-07-26T01:24:27.077Z,28.10
2022-07-26T01:26:55.839Z,28.13
2022-07-26T01:29:34.611Z,28.21
2022-07-26T01:32:05.210Z,28.13
2022-07-26T01:34:32.742Z,27.99
2022-07-26T01:36:59.725Z,28.16
2022-07-26T01:39:26.778Z,28.03
2022-07-26T01:41:54.850Z,27.97
2022-07-26T01:44:23.137Z,27.89
2022-07-26T01:46:50.238Z,27.86
2022-07-26T01:49:17.506Z,27.99
2022-07-26T01:51:44.680Z,27.89
2022-07-26T01:54:12.189Z,27.86
2022-07-26T01:56:39.761Z,28.00
2022-07-26T01:59:06.820Z,28.09
2022-07-26T02:01:39.289Z,28.11
2022-07-26T02:04:09.066Z,28.11
2022-07-26T02:06:37.243Z,28.00
2022-07-26T02:09:05.913Z,28.11
2022-07-26T02:11:34.810Z,27.73
2022-07-26T02:14:03.414Z,28.07
2022-07-26T02:16:30.570Z,28.12
2022-07-26T02:18:57.602Z,28.18
2022-07-26T02:21:24.641Z,28.20
2022-07-26T02:23:51.666Z,28.21
2022-07-26T02:26:18.774Z,28.16
2022-07-26T02:28:45.763Z,28.17
2022-07-26T02:31:15.419Z,28.18
2022-07-26T02:33:43.220Z,27.95
2022-07-26T02:36:10.348Z,27.69
2022-07-26T02:38:37.701Z,27.63
2022-07-26T02:41:06.469Z,27.59
2022-07-26T02:43:33.575Z,27.65
2022-07-26T02:46:01.475Z,27.66
2022-07-26T02:48:30.993Z,27.69
2022-07-26T02:50:58.344Z,27.65
2022-07-26T02:53:25.469Z,27.62
2022-07-26T02:55:52.580Z,27.72
2022-07-26T02:58:21.805Z,27.76
2022-07-26T03:00:48.978Z,27.76
2022-07-26T03:03:16.411Z,27.59
2022-07-26T03:05:43.406Z,27.53
2022-07-26T03:08:10.722Z,27.30
2022-07-26T03:10:37.758Z,27.34
2022-07-26T03:13:04.822Z,27.29
2022-07-26T03:15:32.260Z,27.23
2022-07-26T03:17:59.377Z,27.17
2022-07-26T03:20:26.653Z,27.15
2022-07-26T03:22:53.799Z,26.99
2022-07-26T03:25:21.039Z,26.94
2022-07-26T03:27:48.100Z,27.00
2022-07-26T03:30:15.459Z,26.91
2022-07-26T03:32:42.528Z,27.08
2022-07-26T03:35:09.682Z,26.97
2022-07-26T03:37:45.516Z,26.86
2022-07-26T03:40:18.402Z,27.10
2022-07-26T03:42:47.117Z,26.92
2022-07-26T03:45:15.879Z,26.94
2022-07-26T03:47:43.471Z,27.21
2022-07-26T03:50:11.638Z,27.16
2022-07-26T03:52:38.762Z,27.14
2022-07-26T03:55:25.661Z,27.17
2022-07-26T03:57:52.862Z,27.34
2022-07-26T04:00:19.980Z,27.39
2022-07-26T04:02:47.170Z,27.21
2022-07-26T04:05:14.362Z,27.37
2022-07-26T04:07:52.848Z,27.45
2022-07-26T04:10:22.356Z,27.50
2022-07-26T04:12:50.680Z,27.40
2022-07-26T04:15:19.334Z,27.40
2022-07-26T04:17:48.533Z,27.44
2022-07-26T04:20:16.134Z,27.49
2022-07-26T04:22:43.662Z,27.48
2022-07-26T04:25:11.162Z,27.53
2022-07-26T04:27:38.828Z,27.50
2022-07-26T04:30:12.376Z,27.41
2022-07-26T04:32:42.252Z,27.40
2022-07-26T04:35:09.858Z,27.37
2022-07-26T04:37:44.152Z,27.41
2022-07-26T04:40:15.797Z,27.31
2022-07-26T04:42:43.451Z,27.25
2022-07-26T04:45:12.318Z,27.31
2022-07-26T04:47:49.162Z,27.41
2022-07-26T04:50:17.047Z,27.48
2022-07-26T04:52:44.112Z,27.54
2022-07-26T04:55:11.708Z,27.51
2022-07-26T04:57:38.845Z,27.54
2022-07-26T05:00:21.147Z,27.58
2022-07-26T05:02:50.804Z,27.55
2022-07-26T05:05:18.024Z,27.56
2022-07-26T05:07:47.815Z,27.46
2022-07-26T05:10:16.560Z,27.40
2022-07-26T05:12:43.679Z,27.30
2022-07-26T05:15:13.784Z,27.30
2022-07-26T05:17:43.356Z,27.18
2022-07-26T05:20:12.505Z,27.25
2022-07-26T05:22:39.950Z,27.21
2022-07-26T05:25:07.892Z,26.96
2022-07-26T05:27:34.781Z,27.17
2022-07-26T05:30:01.801Z,27.10
2022-07-26T05:32:28.849Z,26.89
2022-07-26T05:34:56.008Z,27.10
2022-07-26T05:37:23.161Z,27.18
2022-07-26T05:39:50.238Z,27.09
2022-07-26T05:42:17.380Z,27.28
2022-07-26T05:44:44.567Z,27.31
2022-07-26T05:47:11.779Z,27.31
2022-07-26T05:49:39.718Z,27.36
2022-07-26T05:52:08.304Z,27.38
2022-07-26T05:54:36.240Z,27.42
2022-07-26T05:57:03.502Z,27.48
2022-07-26T05:59:30.609Z,27.47
2022-07-26T06:01:57.721Z,27.53
2022-07-26T06:04:26.562Z,27.52
2022-07-26T06:06:55.134Z,27.54
2022-07-26T06:09:24.433Z,27.44
2022-07-26T06:11:51.704Z,27.45
2022-07-26T06:14:19.440Z,27.47
2022-07-26T06:16:50.108Z,27.45
2022-07-26T06:19:17.431Z,27.42
2022-07-26T06:21:45.948Z,27.43
2022-07-26T06:24:13.524Z,27.33
2022-07-26T06:26:40.851Z,27.07
2022-07-26T06:29:08.179Z,27.22
2022-07-26T06:31:35.540Z,27.18
2022-07-26T06:34:02.762Z,27.16
2022-07-26T06:36:31.004Z,27.08
2022-07-26T06:38:58.992Z,27.02
2022-07-26T06:41:26.602Z,27.09
2022-07-26T06:43:53.983Z,27.07
2022-07-26T06:46:21.885Z,27.11
2022-07-26T06:48:52.500Z,27.13
2022-07-26T06:51:20.487Z,27.10
2022-07-26T06:53:47.531Z,26.91
2022-07-26T06:56:15.247Z,26.84
2022-07-26T06:58:43.202Z,26.80
2022-07-26T07:01:10.313Z,26.61
2022-07-26T07:03:38.045Z,26.70
2022-07-26T07:06:05.370Z,26.65
2022-07-26T07:08:32.410Z,26.64
2022-07-26T07:10:59.799Z,26.58
2022-07-26T07:13:29.072Z,26.60
2022-07-26T07:15:56.603Z,26.70
2022-07-26T07:18:23.784Z,26.71
2022-07-26T07:20:51.060Z,26.78
2022-07-26T07:23:18.156Z,26.64
2022-07-26T07:25:45.150Z,26.79
2022-07-26T07:28:12.509Z,26.75
2022-07-26T07:30:39.517Z,26.66
2022-07-26T07:33:09.556Z,26.66
2022-07-26T07:35:50.706Z,26.60
2022-07-26T07:38:18.001Z,26.51
2022-07-26T07:40:46.250Z,26.42
2022-07-26T07:43:13.355Z,26.26
2022-07-26T07:45:40.529Z,26.09
2022-07-26T07:48:07.676Z,26.07
2022-07-26T07:50:34.768Z,26.06
2022-07-26T07:53:02.313Z,26.04
2022-07-26T07:55:41.042Z,26.02
2022-07-26T07:58:10.894Z,26.04
2022-07-26T08:00:38.093Z,25.89
2022-07-26T08:03:05.881Z,25.80
2022-07-26T08:05:32.978Z,25.79
2022-07-26T08:08:00.119Z,25.79
2022-07-26T08:10:27.610Z,25.74
2022-07-26T08:12:54.738Z,25.71
2022-07-26T08:15:23.694Z,25.77
2022-07-26T08:17:54.004Z,25.78
2022-07-26T08:20:23.671Z,25.78
2022-07-26T08:22:52.277Z,25.77
2022-07-26T08:25:19.900Z,25.84
2022-07-26T08:28:00.522Z,25.79
2022-07-26T08:30:31.044Z,25.81
2022-07-26T08:32:58.235Z,25.83
2022-07-26T08:35:25.370Z,25.87
2022-07-26T08:37:52.571Z,25.85
2022-07-26T08:40:19.680Z,25.90
2022-07-26T08:42:54.357Z,25.90
2022-07-26T08:45:31.939Z,25.92
2022-07-26T08:48:18.661Z,25.95
2022-07-26T08:50:46.016Z,26.00
2022-07-26T08:53:13.624Z,26.03
2022-07-26T08:58:27.812Z,25.84
2022-07-26T09:01:14.195Z,25.70
2022-07-26T09:03:45.725Z,25.74
2022-07-26T09:06:21.437Z,25.61
2022-07-26T09:08:51.381Z,25.85
2022-07-26T09:11:24.131Z,25.97
2022-07-26T09:13:52.465Z,26.07
2022-07-26T09:16:19.604Z,26.17
2022-07-26T09:18:46.859Z,26.28
2022-07-26T09:21:38.570Z,26.43
2022-07-26T09:24:06.159Z,26.55
2022-07-26T09:26:33.540Z,26.58
2022-07-26T09:29:12.044Z,26.68
2022-07-26T09:31:40.307Z,26.65
2022-07-26T09:34:08.339Z,26.77
2022-07-26T09:36:51.879Z,26.96
2022-07-26T09:39:33.362Z,26.98
2022-07-26T09:42:28.654Z,27.10
2022-07-26T09:44:57.676Z,27.18
2022-07-26T09:47:36.918Z,27.24
2022-07-26T09:50:18.163Z,27.32
2022-07-26T09:53:00.360Z,27.40
2022-07-26T09:55:32.913Z,27.44
2022-07-26T09:58:06.730Z,27.50
2022-07-26T10:00:34.342Z,27.58
2022-07-26T10:03:01.788Z,27.66
2022-07-26T10:05:29.290Z,27.72
2022-07-26T10:07:56.867Z,27.81
2022-07-26T10:10:34.092Z,27.89
2022-07-26T10:13:03.237Z,27.95
2022-07-26T10:15:35.754Z,28.08
2022-07-26T10:18:05.200Z,28.10
2022-07-26T10:20:50.959Z,28.09
2022-07-26T10:23:41.167Z,28.16
2022-07-26T10:26:14.095Z,28.16
2022-07-26T10:28:41.677Z,28.24
2022-07-26T10:31:20.854Z,28.32
2022-07-26T10:33:50.021Z,28.35
2022-07-26T10:36:24.599Z,28.47
2022-07-26T10:39:00.889Z,28.56
2022-07-26T10:41:48.569Z,28.66
2022-07-26T10:44:20.048Z,28.72
2022-07-26T10:47:08.531Z,28.79
2022-07-26T10:49:45.628Z,28.82
2022-07-26T10:52:17.210Z,28.95
2022-07-26T10:54:59.625Z,28.97
2022-07-26T10:57:31.451Z,29.01
2022-07-26T10:59:59.409Z,28.98
2022-07-26T11:13:22.577Z,28.38
2022-07-26T11:15:52.571Z,28.32
2022-07-26T11:18:28.012Z,28.31
2022-07-26T11:20:56.911Z,28.32
2022-07-26T11:23:25.928Z,28.39
2022-07-26T11:26:04.402Z,28.48
2022-07-26T11:28:43.588Z,28.70
2022-07-26T11:31:14.369Z,28.87
2022-07-26T11:33:45.260Z,29.02
2022-07-26T11:36:13.301Z,29.21
2022-07-26T11:38:54.373Z,29.44
2022-07-26T11:41:34.510Z,29.59
2022-07-26T11:44:02.998Z,29.73
2022-07-26T11:46:37.301Z,29.81
2022-07-26T11:49:06.504Z,29.88
2022-07-26T11:51:33.939Z,29.97
2022-07-26T11:54:03.779Z,30.04
2022-07-26T11:56:32.614Z,30.26
2022-07-26T11:59:00.517Z,30.47
2022-07-26T12:01:27.728Z,30.53
2022-07-26T12:03:55.910Z,30.66
2022-07-26T12:06:27.124Z,30.76
2022-07-26T12:08:58.628Z,30.90
2022-07-26T12:11:37.917Z,31.06
2022-07-26T12:14:05.061Z,31.19
2022-07-26T12:16:45.538Z,31.34
2022-07-26T12:19:19.297Z,31.45
2022-07-26T12:21:48.772Z,31.56
2022-07-26T12:24:40.149Z,31.67
2022-07-26T12:27:10.447Z,31.93
2022-07-26T12:29:39.595Z,32.07
2022-07-26T12:32:12.878Z,32.14
2022-07-26T12:34:42.130Z,32.07
2022-07-26T12:37:13.172Z,31.88
2022-07-26T12:39:41.519Z,32.32
2022-07-26T12:42:33.536Z,32.24
2022-07-26T12:45:04.072Z,32.50
2022-07-26T12:47:31.199Z,32.62
2022-07-26T12:49:58.388Z,32.63
2022-07-26T12:52:25.449Z,32.67
2022-07-26T12:54:53.710Z,32.57
2022-07-26T12:57:21.560Z,32.87
2022-07-26T12:59:49.842Z,33.18
2022-07-26T13:02:18.811Z,33.40
2022-07-26T13:04:46.472Z,33.52
2022-07-26T13:07:14.690Z,33.66
2022-07-26T13:09:42.682Z,33.68
2022-07-26T13:12:10.571Z,33.72
2022-07-26T13:14:38.400Z,33.81
2022-07-26T13:17:06.663Z,33.87
2022-07-26T13:19:35.111Z,34.09
2022-07-26T13:22:03.231Z,33.91
2022-07-26T13:24:33.203Z,33.92
2022-07-26T13:27:01.250Z,33.99
2022-07-26T13:29:29.721Z,34.23
2022-07-26T13:31:58.270Z,34.38
2022-07-26T13:34:26.052Z,34.42
2022-07-26T13:36:53.823Z,34.59
2022-07-26T13:39:20.977Z,34.75
2022-07-26T13:41:48.101Z,35.00
2022-07-26T13:44:15.222Z,35.22
2022-07-26T13:46:42.416Z,35.36
2022-07-26T13:49:09.841Z,35.60
2022-07-26T13:51:56.693Z,35.62
2022-07-26T13:54:32.074Z,35.77
2022-07-26T13:57:01.071Z,35.77
2022-07-26T13:59:28.500Z,35.66
2022-07-26T14:01:56.976Z,35.41
2022-07-26T14:04:24.432Z,35.20
2022-07-26T14:06:52.102Z,34.84
2022-07-26T14:09:20.361Z,34.54
2022-07-26T14:11:47.961Z,34.17
2022-07-26T14:14:15.351Z,33.84
2022-07-26T14:16:42.609Z,33.62
2022-07-26T14:19:09.968Z,33.48
2022-07-26T14:21:45.492Z,33.46
2022-07-26T14:24:24.590Z,33.20
2022-07-26T14:26:55.322Z,33.12
2022-07-26T14:29:25.524Z,32.92
2022-07-26T14:31:52.646Z,32.74
2022-07-26T14:34:19.768Z,32.79
2022-07-26T14:36:46.933Z,32.39
2022-07-26T14:39:13.980Z,32.25
2022-07-26T14:41:41.192Z,32.16
2022-07-26T14:44:08.625Z,32.17
2022-07-26T14:46:35.922Z,32.14
2022-07-26T14:49:03.012Z,32.18
2022-07-26T14:51:30.270Z,32.16
2022-07-26T14:53:57.391Z,32.10
2022-07-26T14:56:24.452Z,32.19
2022-07-26T14:58:51.621Z,32.17
2022-07-26T15:01:18.783Z,31.93
2022-07-26T15:03:45.968Z,31.90
2022-07-26T15:06:13.034Z,31.82
2022-07-26T15:08:40.165Z,31.74
2022-07-26T15:11:07.241Z,31.68
2022-07-26T15:13:34.882Z,31.61
2022-07-26T15:16:02.007Z,31.47
2022-07-26T15:18:29.173Z,31.40
2022-07-26T15:20:57.884Z,31.38
2022-07-26T15:23:25.410Z,31.21
2022-07-26T15:25:52.701Z,31.07
2022-07-26T15:28:20.132Z,31.00
2022-07-26T15:30:47.221Z,31.01
2022-07-26T15:33:18.304Z,30.97
2022-07-26T15:35:46.009Z,30.84
2022-07-26T15:38:13.144Z,30.75
2022-07-26T15:40:40.194Z,30.66
2022-07-26T15:43:22.451Z,30.62
2022-07-26T15:46:09.544Z,30.58
2022-07-26T15:48:36.760Z,30.54
2022-07-26T15:51:03.831Z,30.56
2022-07-26T15:53:34.930Z,30.55
2022-07-26T15:56:03.098Z,30.42
2022-07-26T15:58:30.232Z,30.36
2022-07-26T16:01:00.613Z,30.24
2022-07-26T16:03:28.528Z,30.09
2022-07-26T16:05:57.061Z,30.05
2022-07-26T16:08:24.371Z,29.83
2022-07-26T16:10:51.531Z,29.69
2022-07-26T16:13:19.390Z,29.45
2022-07-26T16:15:46.361Z,29.30
2022-07-26T16:18:13.631Z,29.20
2022-07-26T16:20:42.101Z,29.03
2022-07-26T16:23:09.868Z,28.75
2022-07-26T16:25:36.950Z,28.69
2022-07-26T16:28:04.281Z,28.56
2022-07-26T16:30:31.494Z,28.41
2022-07-26T16:32:58.492Z,28.26
2022-07-26T16:35:25.719Z,28.27
2022-07-26T16:37:52.823Z,28.13
2022-07-26T16:40:19.900Z,27.98
2022-07-26T16:42:46.849Z,27.94
2022-07-26T16:45:13.851Z,27.93
2022-07-26T16:47:40.959Z,28.00
2022-07-26T16:50:08.492Z,27.84
2022-07-26T16:52:35.582Z,27.78
2022-07-26T16:55:04.322Z,27.64
2022-07-26T16:57:31.503Z,27.50
2022-07-26T16:59:58.556Z,27.50
2022-07-26T17:02:25.705Z,27.41
2022-07-26T17:04:54.208Z,27.29
2022-07-26T17:07:25.900Z,27.13
2022-07-26T17:09:55.223Z,27.09
2022-07-26T17:12:23.393Z,27.00
2022-07-26T17:14:50.951Z,26.90
2022-07-26T17:17:18.026Z,26.81
2022-07-26T17:19:45.089Z,26.77
2022-07-26T17:22:12.118Z,26.72
2022-07-26T17:24:39.263Z,26.57
2022-07-26T17:27:06.238Z,26.52
2022-07-26T17:29:33.291Z,26.45
2022-07-26T17:32:00.334Z,26.35
2022-07-26T17:34:28.026Z,26.28
2022-07-26T17:36:59.510Z,26.11
2022-07-26T17:39:50.769Z,26.03
2022-07-26T17:42:14.879Z,25.85
2022-07-26T17:44:41.997Z,25.61
2022-07-26T17:47:27.498Z,25.40
2022-07-26T17:49:57.075Z,25.31
2022-07-26T17:52:26.026Z,25.31
2022-07-26T17:54:54.345Z,25.35
2022-07-26T17:57:21.399Z,25.30
2022-07-26T17:59:48.471Z,25.29
2022-07-26T18:02:15.525Z,25.17
2022-07-26T18:04:43.052Z,24.97
2022-07-26T18:07:10.010Z,25.09
2022-07-26T18:09:37.333Z,25.10
2022-07-26T18:12:04.727Z,25.16
2022-07-26T18:14:31.848Z,25.23
2022-07-26T18:16:58.889Z,25.29
2022-07-26T18:19:25.980Z,25.34
2022-07-26T18:21:53.197Z,25.42
2022-07-26T18:24:20.420Z,25.45
2022-07-26T18:26:47.433Z,25.47
2022-07-26T18:29:16.717Z,25.53
2022-07-26T18:31:44.063Z,25.58
2022-07-26T18:34:11.152Z,25.58
2022-07-26T18:36:38.251Z,25.59
2022-07-26T18:39:05.552Z,25.61
2022-07-26T18:41:35.015Z,25.58
2022-07-26T18:44:02.342Z,25.63
2022-07-26T18:46:29.342Z,25.59
2022-07-26T18:48:57.674Z,25.57
2022-07-26T18:51:26.719Z,25.55
2022-07-26T18:53:54.050Z,25.59
2022-07-26T18:56:21.131Z,25.55
2022-07-26T18:58:48.191Z,25.51
2022-07-26T19:01:15.346Z,25.49
2022-07-26T19:03:42.676Z,25.47
2022-07-26T19:06:11.442Z,25.46
2022-07-26T19:08:38.531Z,25.45
2022-07-26T19:11:05.890Z,25.41
2022-07-26T19:13:33.006Z,25.36
2022-07-26T19:16:00.230Z,25.31
2022-07-26T19:18:27.340Z,25.27
2022-07-26T19:20:54.291Z,25.25
2022-07-26T19:23:21.453Z,25.26
2022-07-26T19:25:48.548Z,25.18
2022-07-26T19:28:15.630Z,25.16
2022-07-26T19:30:43.380Z,25.12
2022-07-26T19:33:10.521Z,25.09
2022-07-26T19:35:37.606Z,25.14
2022-07-26T19:38:04.901Z,25.12
2022-07-26T19:40:31.982Z,25.10
2022-07-26T19:42:59.288Z,25.07
2022-07-26T19:45:26.278Z,25.08
2022-07-26T19:47:53.600Z,24.96
2022-07-26T19:50:20.694Z,24.92
2022-07-26T19:52:47.731Z,24.86
2022-07-26T19:55:14.796Z,24.85
2022-07-26T19:57:41.918Z,24.78
2022-07-26T20:00:10.703Z,24.71
2022-07-26T20:02:41.394Z,24.63
2022-07-26T20:05:13.073Z,24.60
2022-07-26T20:07:40.263Z,24.55
2022-07-26T20:10:08.032Z,24.47
2022-07-26T20:12:37.538Z,24.44
2022-07-26T20:15:05.910Z,24.38
2022-07-26T20:17:35.724Z,24.32
2022-07-26T20:20:05.910Z,24.29
2022-07-26T20:22:32.949Z,24.21
2022-07-26T20:25:00.215Z,24.16
2022-07-26T20:27:27.563Z,24.15
2022-07-26T20:30:00.453Z,24.11
2022-07-26T20:32:28.138Z,23.99
2022-07-26T20:34:55.296Z,23.95
2022-07-26T20:37:22.378Z,23.93
2022-07-26T20:39:49.582Z,23.86
2022-07-26T20:42:21.506Z,23.86
2022-07-26T20:44:49.197Z,23.77
2022-07-26T20:47:16.337Z,23.79
2022-07-26T20:49:43.387Z,23.75
2022-07-26T20:52:10.650Z,23.75
2022-07-26T20:54:37.721Z,23.74
2022-07-26T20:57:04.969Z,23.71
2022-07-26T20:59:32.619Z,23.71
2022-07-26T21:01:59.691Z,23.69
2022-07-26T21:04:27.017Z,23.63
2022-07-26T21:06:54.248Z,23.59
2022-07-26T21:09:21.362Z,23.60
2022-07-26T21:11:48.410Z,23.55
2022-07-26T21:14:15.361Z,23.53
2022-07-26T21:16:42.407Z,23.49
2022-07-26T21:19:09.812Z,23.47
2022-07-26T21:21:38.349Z,23.48
2022-07-26T21:24:06.560Z,23.43
2022-07-26T21:26:34.652Z,23.34
2022-07-26T21:29:01.618Z,23.38
2022-07-26T21:31:28.621Z,23.35
2022-07-26T21:33:55.781Z,23.33
2022-07-26T21:36:23.057Z,23.31
2022-07-26T21:38:50.163Z,23.21
2022-07-26T21:41:17.318Z,23.24
2022-07-26T21:43:44.441Z,23.21
2022-07-26T21:46:13.294Z,23.20
2022-07-26T21:48:41.324Z,23.18
2022-07-26T21:51:08.501Z,23.10
2022-07-26T21:53:35.583Z,23.14
2022-07-26T21:56:02.581Z,23.19
2022-07-26T21:58:33.265Z,23.15
2022-07-26T22:01:07.260Z,23.15
2022-07-26T22:03:36.123Z,23.09
2022-07-26T22:06:03.683Z,23.00
2022-07-26T22:08:31.981Z,23.07
2022-07-26T22:10:59.331Z,23.10
2022-07-26T22:13:26.363Z,23.07
2022-07-26T22:15:53.899Z,23.06
2022-07-26T22:18:21.144Z,23.02
2022-07-26T22:20:49.381Z,22.99
2022-07-26T22:23:18.022Z,22.98
2022-07-26T22:25:46.260Z,22.85
2022-07-26T22:28:18.094Z,22.81
2022-07-26T22:30:46.478Z,22.82
2022-07-26T22:33:13.499Z,22.82
2022-07-26T22:35:40.598Z,22.81
2022-07-26T22:38:10.133Z,22.78
2022-07-26T22:40:38.850Z,22.82
2022-07-26T22:43:07.200Z,22.84
2022-07-26T22:45:35.427Z,22.85
2022-07-26T22:48:04.239Z,22.75
2022-07-26T22:50:31.920Z,22.81
2022-07-26T22:53:01.235Z,22.83
2022-07-26T22:55:28.661Z,22.79
2022-07-26T22:57:55.717Z,22.70
2022-07-26T23:00:22.841Z,22.60
2022-07-26T23:02:50.023Z,22.46
2022-07-26T23:05:17.359Z,22.42
2022-07-26T23:07:47.882Z,22.35
2022-07-26T23:10:16.647Z,22.36
2022-07-26T23:12:44.162Z,22.32
2022-07-26T23:15:12.342Z,22.29
2022-07-26T23:17:39.371Z,22.30
2022-07-26T23:20:08.955Z,22.17
2022-07-26T23:22:36.206Z,22.17
2022-07-26T23:25:03.484Z,22.19
2022-07-26T23:27:30.475Z,22.11
2022-07-26T23:29:57.781Z,22.08
2022-07-26T23:32:24.829Z,22.06
2022-07-26T23:34:51.792Z,22.05
2022-07-26T23:37:19.404Z,22.02
2022-07-26T23:39:46.441Z,22.04
2022-07-26T23:42:13.531Z,22.05
2022-07-26T23:44:40.609Z,22.11
2022-07-26T23:47:07.857Z,22.08
2022-07-26T23:49:34.909Z,22.07
2022-07-26T23:52:02.041Z,22.04
2022-07-26T23:54:29.061Z,21.93
2022-07-26T23:56:56.079Z,21.89
2022-07-26T23:59:23.749Z,21.84
